Portada
METAR-TAF:

METAR-TAF

Aeroports :

Ponce, Puerto Rico, Estats Units d'Amèrica

latitud: 18-01N, longitud: 066-34W, altitud: 8 m

METAR: manca

Hora: 11:18 (15:18 UTC)

Pronòstic

L'informe es va fer fa 3 hores i 40 minuts, a les 11:38 UTC
Pronòstic vàlid del 13 a les 12 UTC al 14 a les 12 UTC
Vent 5 kt amb direcció variable
Visibilitat: 10 km
Cel clar
A partir de les 13 a les 1500 UTC
Vent 15 kt del Sud/Sud-Est
Visibilitat: 10 km
Escasses núvols a una alçada de 3000 ft
Núvols disperses a una alçada de 6000 ft
A partir de les 13 a les 2330 UTC
Vent 6 kt del Est
Visibilitat: 10 km
Escasses núvols a una alçada de 3000 ft

TAF: TJPS 131138Z 1312/1412 VRB05KT P6SM SKC FM131500 15015KT P6SM FEW030 SCT060 FM132330 10006KT P6SM FEW030

Observacions i pronòstics meteorològics de més de 4000 aeroports (METAR i TAF).

Les estacions disponibles són els punts grocs i vermells al mapa.

Posi el ratolí al punt desitjat per veure el nom de l'estació.

Feu clic per veure les observacions i els pronòstics meteorològics.

Per canviar el mapa: feu clic els botons verds amb una creu de color negre per apropar; al botó verd amb un guió per allunyar la imatge; o en les fletxes verdes per a mapes adjacents.


METAR-TAF: